Time;durP1;ratioP1;P1;durP2;ratioP2;P2;SDS_P1;SDS_P2;PMS_P1;PMS_P2;Temp;Humidity;BMP_temperature;BMP_pressure;BME280_temperature;BME280_humidity;BME280_pressure;Samples;Min_cycle;Max_cycle;Signal;HPM_P1;HPM_P2
2021/01/04 00:00:30;;;;;;;25.55;14.15;;;;;;;4.95;90.05;100050.34;5115241;28;20102;-60
2021/01/04 00:03:26;;;;;;;26.15;13.55;;;;;;;4.94;90.55;100051.50;5106605;28;20118;-60
2021/01/04 00:06:00;;;;;;;26.77;15.88;;;;;;;5.01;90.54;100045.25;5115619;28;20431;-60
2021/01/04 00:08:25;;;;;;;23.45;14.45;;;;;;;5.00;90.84;100040.84;5113700;28;20291;-63
2021/01/04 00:11:06;;;;;;;24.35;15.23;;;;;;;5.05;90.86;100050.88;5104303;28;20140;-60
2021/01/04 00:14:00;;;;;;;25.17;15.10;;;;;;;5.07;90.80;100040.16;5115563;28;20022;-59
2021/01/04 00:16:41;;;;;;;24.77;14.40;;;;;;;5.11;90.70;100039.03;5115466;28;20107;-59
2021/01/04 00:19:24;;;;;;;24.60;14.77;;;;;;;5.13;90.64;100044.22;5115609;28;20028;-62
2021/01/04 00:22:03;;;;;;;23.70;14.38;;;;;;;5.16;91.06;100038.69;5115269;28;20027;-62
2021/01/04 00:24:48;;;;;;;23.75;13.27;;;;;;;5.19;90.69;100035.16;5114238;28;20398;-63
2021/01/04 00:27:28;;;;;;;25.83;14.77;;;;;;;5.22;90.71;100042.00;5115037;28;20418;-62
2021/01/04 00:29:59;;;;;;;23.95;14.60;;;;;;;5.24;90.64;100048.78;5118865;28;20031;-62
2021/01/04 00:32:33;;;;;;;24.30;15.32;;;;;;;5.30;90.86;100052.06;5118869;28;20389;-62
2021/01/04 00:35:06;;;;;;;23.50;13.73;;;;;;;5.34;90.78;100054.88;5118770;28;20402;-62
2021/01/04 00:37:50;;;;;;;23.98;14.10;;;;;;;5.38;90.59;100058.53;5119028;28;20034;-61
2021/01/04 00:40:53;;;;;;;25.60;14.05;;;;;;;5.36;90.66;100049.75;5115931;28;20020;-60
2021/01/04 00:43:42;;;;;;;29.20;15.10;;;;;;;5.44;90.77;100051.44;5118880;27;20019;-63
2021/01/04 00:46:08;;;;;;;27.50;14.98;;;;;;;5.49;90.85;100046.38;5118499;28;20038;-63
2021/01/04 00:48:40;;;;;;;23.42;14.13;;;;;;;5.47;90.70;100048.72;5118764;28;20023;-63
2021/01/04 00:51:24;;;;;;;26.02;14.98;;;;;;;5.49;90.74;100051.16;5118563;28;20477;-61
2021/01/04 00:53:51;;;;;;;25.70;14.40;;;;;;;5.54;90.62;100050.81;5118492;28;20069;-61
2021/01/04 00:56:32;;;;;;;23.20;13.77;;;;;;;5.54;90.80;100057.19;5118520;28;20027;-64
2021/01/04 00:59:04;;;;;;;21.15;13.35;;;;;;;5.56;90.83;100071.56;5118639;28;20038;-60
2021/01/04 01:01:42;;;;;;;23.63;15.02;;;;;;;5.65;90.36;100064.88;5117763;28;20024;-60
2021/01/04 01:04:24;;;;;;;20.98;12.95;;;;;;;5.60;90.63;100063.22;5117668;28;20051;-63
2021/01/04 01:07:05;;;;;;;28.70;14.38;;;;;;;5.61;90.73;100067.63;5117901;28;20069;-63
2021/01/04 01:09:35;;;;;;;27.50;14.27;;;;;;;5.65;90.87;100062.91;5118250;28;20023;-62
2021/01/04 01:12:19;;;;;;;24.65;14.23;;;;;;;5.68;90.59;100062.16;5117935;28;20016;-63
2021/01/04 01:15:01;;;;;;;25.77;13.75;;;;;;;5.68;91.12;100055.75;5118267;28;20031;-63
2021/01/04 01:17:51;;;;;;;24.38;14.32;;;;;;;5.63;90.93;100051.31;5118143;28;20039;-58
2021/01/04 01:20:19;;;;;;;23.63;14.70;;;;;;;5.67;91.00;100051.38;5114416;28;20022;-60
2021/01/04 01:22:45;;;;;;;27.10;13.88;;;;;;;5.72;90.70;100056.63;5117438;28;20059;-60
2021/01/04 01:25:21;;;;;;;22.98;13.70;;;;;;;5.71;90.28;100049.44;5118223;28;20073;-64
2021/01/04 01:28:07;;;;;;;24.27;13.25;;;;;;;5.71;90.42;100050.22;5117738;28;20430;-60
2021/01/04 01:30:48;;;;;;;25.73;14.20;;;;;;;5.71;90.51;100044.66;5117900;28;20074;-61
2021/01/04 01:33:41;;;;;;;21.48;13.20;;;;;;;5.74;90.56;100045.88;5118166;28;20353;-60
2021/01/04 01:36:06;;;;;;;23.60;13.90;;;;;;;5.70;90.28;100039.47;5117561;28;20019;-60
2021/01/04 01:39:12;;;;;;;24.35;13.57;;;;;;;5.66;90.54;100058.94;5117734;28;20080;-60
2021/01/04 01:42:15;;;;;;;24.10;13.73;;;;;;;5.65;90.66;100057.31;5097165;28;20045;-63
2021/01/04 01:44:49;;;;;;;19.60;12.75;;;;;;;5.64;90.90;100050.16;5103638;28;20020;-61
2021/01/04 01:47:27;;;;;;;22.83;12.52;;;;;;;5.61;90.71;100050.91;5117557;28;20103;-63
2021/01/04 01:49:53;;;;;;;21.38;13.30;;;;;;;5.65;91.30;100051.75;5104359;28;20031;-60
2021/01/04 01:52:27;;;;;;;22.65;13.05;;;;;;;5.68;91.34;100048.19;5117436;28;20438;-60
2021/01/04 01:55:11;;;;;;;23.08;13.77;;;;;;;5.70;91.21;100047.81;5117161;28;20020;-63
2021/01/04 01:57:49;;;;;;;23.67;13.15;;;;;;;5.70;91.46;100043.06;5117324;28;20030;-60
2021/01/04 02:00:38;;;;;;;21.67;13.40;;;;;;;5.70;91.37;100043.06;5117298;28;20070;-60
2021/01/04 02:03:18;;;;;;;25.63;13.82;;;;;;;5.74;91.25;100046.69;5115945;28;20326;-60
2021/01/04 02:06:15;;;;;;;24.70;14.05;;;;;;;5.73;91.30;100045.06;5117233;28;20019;-63
2021/01/04 02:08:46;;;;;;;23.65;13.48;;;;;;;5.76;91.25;100046.34;5094077;28;20032;-60
2021/01/04 02:11:26;;;;;;;28.10;13.88;;;;;;;5.78;91.32;100036.41;5117142;28;20055;-60
2021/01/04 02:14:02;;;;;;;23.25;13.48;;;;;;;5.79;91.35;100040.78;5117113;28;20077;-61
2021/01/04 02:16:35;;;;;;;23.02;13.90;;;;;;;5.80;90.88;100039.63;5116930;28;20035;-61
2021/01/04 02:19:35;;;;;;;28.60;14.88;;;;;;;5.78;91.05;100039.19;5117053;28;20115;-64
2021/01/04 02:22:19;;;;;;;24.60;12.90;;;;;;;5.75;90.84;100034.38;5116013;28;20055;-61
2021/01/04 02:24:44;;;;;;;27.15;13.05;;;;;;;5.77;90.57;100032.00;5117013;28;20067;-61
2021/01/04 02:27:30;;;;;;;23.33;14.57;;;;;;;5.75;90.60;100045.53;5116515;28;20470;-61
2021/01/04 02:29:55;;;;;;;23.58;13.88;;;;;;;5.79;90.68;100040.00;5116719;28;20039;-61
2021/01/04 02:32:21;;;;;;;21.02;13.15;;;;;;;5.76;90.34;100040.75;5116305;28;20039;-61
2021/01/04 02:34:53;;;;;;;28.05;13.57;;;;;;;5.73;90.56;100042.28;5117010;28;20038;-62
2021/01/04 02:37:20;;;;;;;23.45;13.13;;;;;;;5.74;90.44;100038.31;5116423;28;20044;-62
2021/01/04 02:40:05;;;;;;;20.92;12.98;;;;;;;5.77;90.26;100039.56;5116781;28;20027;-63
2021/01/04 02:42:43;;;;;;;20.25;12.38;;;;;;;5.78;90.42;100038.38;5116221;28;20030;-62
2021/01/04 02:45:15;;;;;;;20.73;12.05;;;;;;;5.75;89.95;100034.38;5116495;28;20019;-62
2021/01/04 02:47:53;;;;;;;21.02;12.82;;;;;;;5.69;90.18;100035.88;5116131;28;20027;-61
2021/01/04 02:50:56;;;;;;;25.70;13.25;;;;;;;5.69;90.37;100040.63;5115982;28;20030;-63
2021/01/04 02:53:48;;;;;;;29.08;15.68;;;;;;;5.63;90.39;100037.38;5106776;28;20038;-63
2021/01/04 02:56:44;;;;;;;25.55;13.60;;;;;;;5.56;90.08;100049.25;5116133;28;20023;-61
2021/01/04 02:59:46;;;;;;;22.40;12.77;;;;;;;5.53;90.35;100038.06;5115842;28;20034;-60
2021/01/04 03:02:33;;;;;;;24.73;14.68;;;;;;;5.51;90.35;100032.84;5109506;28;20295;-63
2021/01/04 03:04:58;;;;;;;23.83;13.80;;;;;;;5.47;90.27;100036.75;5105504;28;20414;-63
2021/01/04 03:07:28;;;;;;;24.52;13.57;;;;;;;5.41;90.47;100030.72;5106304;28;20028;-60
2021/01/04 03:09:55;;;;;;;24.35;12.70;;;;;;;5.39;90.61;100021.13;5102050;28;20402;-60
2021/01/04 03:12:28;;;;;;;19.67;12.63;;;;;;;5.37;90.64;100024.28;5116153;28;20095;-63
2021/01/04 03:14:53;;;;;;;21.02;12.27;;;;;;;5.41;90.81;100021.53;5115992;28;20295;-58
2021/01/04 03:17:43;;;;;;;26.83;12.38;;;;;;;5.42;90.56;100028.72;5115897;28;20027;-63
2021/01/04 03:20:16;;;;;;;19.60;11.98;;;;;;;5.39;90.59;100032.25;5101100;28;20030;-61
2021/01/04 03:22:44;;;;;;;22.70;12.68;;;;;;;5.45;90.40;100030.75;5116120;28;20031;-63
2021/01/04 03:25:36;;;;;;;22.83;12.93;;;;;;;5.45;90.23;100041.91;5116050;28;20011;-62
2021/01/04 03:28:05;;;;;;;20.38;12.18;;;;;;;5.48;90.35;100038.38;5115869;28;20023;-57
2021/01/04 03:30:30;;;;;;;24.75;13.38;;;;;;;5.48;90.24;100036.41;5116032;28;20031;-57
2021/01/04 03:32:57;;;;;;;22.67;12.38;;;;;;;5.48;89.99;100038.38;5115313;28;20052;-61
2021/01/04 03:35:23;;;;;;;23.67;12.00;;;;;;;5.45;90.25;100036.31;5115866;28;20042;-62
2021/01/04 03:37:48;;;;;;;23.52;12.80;;;;;;;5.40;90.05;100036.66;5115911;28;20110;-63
2021/01/04 03:40:14;;;;;;;23.67;12.55;;;;;;;5.34;89.79;100030.63;5115857;28;20038;-63
2021/01/04 03:42:40;;;;;;;22.75;13.10;;;;;;;5.28;89.77;100029.34;5115954;28;20031;-61
2021/01/04 03:45:06;;;;;;;21.58;12.75;;;;;;;5.23;90.09;100036.03;5116100;28;20303;-59
2021/01/04 03:47:32;;;;;;;23.33;13.18;;;;;;;5.21;90.14;100032.81;5115280;28;20024;-63
2021/01/04 03:49:57;;;;;;;23.08;12.68;;;;;;;5.19;90.36;100035.16;5115705;28;20322;-62
2021/01/04 03:52:22;;;;;;;26.58;13.65;;;;;;;5.16;90.44;100035.09;5115741;28;20051;-62
2021/01/04 03:54:48;;;;;;;19.98;13.25;;;;;;;5.16;90.72;100024.75;5115733;28;20028;-59
2021/01/04 03:57:13;;;;;;;22.98;12.95;;;;;;;5.14;90.91;100027.13;5115707;28;20069;-63
2021/01/04 03:59:38;;;;;;;24.95;14.20;;;;;;;5.12;90.95;100029.47;5115670;28;20031;-60
2021/01/04 04:02:04;;;;;;;24.70;14.07;;;;;;;5.10;90.91;100029.06;5115231;28;20032;-62
2021/01/04 04:04:30;;;;;;;20.08;13.02;;;;;;;5.05;90.93;100032.16;5119056;28;20024;-60
2021/01/04 04:06:55;;;;;;;20.48;12.93;;;;;;;5.03;91.05;100026.16;5119569;28;20035;-62
2021/01/04 04:09:22;;;;;;;22.23;12.52;;;;;;;5.03;91.02;100017.81;5119491;28;20027;-62
2021/01/04 04:11:49;;;;;;;22.30;14.05;;;;;;;5.05;91.19;100009.09;5119349;28;20019;-59
2021/01/04 04:14:15;;;;;;;21.85;12.27;;;;;;;5.13;90.85;100017.16;5119583;28;20307;-63
2021/01/04 04:16:40;;;;;;;21.58;12.90;;;;;;;5.19;90.91;100021.22;5104991;28;20063;-63
2021/01/04 04:19:06;;;;;;;20.58;12.50;;;;;;;5.19;90.33;100004.50;5119424;28;20074;-63
2021/01/04 04:21:32;;;;;;;20.17;12.38;;;;;;;5.20;90.44;100000.56;5119603;28;20069;-63
2021/01/04 04:23:58;;;;;;;23.48;14.35;;;;;;;5.20;90.37;100002.53;5118955;27;20081;-63
2021/01/04 04:26:28;;;;;;;21.77;13.00;;;;;;;5.23;89.75;100013.75;5107703;28;20020;-64
2021/01/04 04:28:54;;;;;;;22.90;13.23;;;;;;;5.24;90.01;100007.00;5114010;28;20028;-58
2021/01/04 04:31:20;;;;;;;24.15;13.13;;;;;;;5.23;89.63;100005.38;5109442;28;20050;-60
2021/01/04 04:33:46;;;;;;;23.88;14.35;;;;;;;5.24;89.86;100004.22;5112071;28;20322;-62
2021/01/04 04:36:27;;;;;;;20.73;12.73;;;;;;;5.28;89.45;100015.41;5119188;28;20027;-63
2021/01/04 04:38:53;;;;;;;24.10;12.98;;;;;;;5.25;89.16;100005.00;5119139;28;20079;-63
2021/01/04 04:41:35;;;;;;;18.42;12.40;;;;;;;5.19;89.85;99998.94;5111656;28;20114;-61
2021/01/04 04:44:34;;;;;;;22.95;14.00;;;;;;;5.17;89.76;99998.50;5116633;28;20322;-60
2021/01/04 04:47:06;;;;;;;19.92;12.32;;;;;;;5.18;90.11;100002.91;5102820;28;20035;-60
2021/01/04 04:49:50;;;;;;;;;;;;;;;5.17;90.00;100014.41;5108989;28;20053;-53
2021/01/04 04:52:21;;;;;;;21.52;12.90;;;;;;;5.14;89.92;100015.97;5106666;28;19921;-62
2021/01/04 04:54:54;;;;;;;24.50;13.25;;;;;;;5.12;90.26;100017.53;5099754;28;20072;-63
2021/01/04 04:57:41;;;;;;;24.20;14.48;;;;;;;5.11;90.07;100005.59;5100309;28;20480;-65
2021/01/04 05:00:25;;;;;;;29.23;14.38;;;;;;;5.12;90.07;100012.78;5098247;28;20036;-62
2021/01/04 05:03:14;;;;;;;22.92;13.60;;;;;;;5.14;90.13;100009.59;5110670;28;20040;-62
2021/01/04 05:05:57;;;;;;;25.38;13.43;;;;;;;5.14;89.95;99993.69;5100294;28;20031;-62
2021/01/04 05:08:50;;;;;;;23.20;13.43;;;;;;;5.13;89.97;100003.22;5104868;28;20027;-56
2021/01/04 05:11:20;;;;;;;24.75;14.88;;;;;;;5.15;89.93;100000.88;5109919;28;20020;-64
2021/01/04 05:13:50;;;;;;;24.05;12.70;;;;;;;5.13;90.05;99997.66;5106978;28;20056;-63
2021/01/04 05:16:18;;;;;;;26.10;13.25;;;;;;;5.04;89.50;99997.13;5106887;28;20054;-62
2021/01/04 05:19:10;;;;;;;22.40;13.57;;;;;;;4.97;89.57;99999.81;5104968;28;20036;-60
2021/01/04 05:21:47;;;;;;;19.88;13.02;;;;;;;4.93;89.62;99994.19;5092601;28;20066;-60
2021/01/04 05:24:54;;;;;;;23.00;14.13;;;;;;;4.88;89.25;99988.13;5100539;28;20063;-62
2021/01/04 05:27:41;;;;;;;22.98;13.05;;;;;;;4.78;88.78;99985.97;5107238;28;20030;-62
2021/01/04 05:30:31;;;;;;;19.95;12.13;;;;;;;4.70;88.30;99979.50;5107944;28;20406;-62
2021/01/04 05:33:15;;;;;;;26.33;15.70;;;;;;;4.61;87.71;99990.06;5104504;28;20043;-58
2021/01/04 05:35:43;;;;;;;20.58;13.00;;;;;;;4.54;87.60;99999.09;5108876;28;20071;-59
2021/01/04 05:38:27;;;;;;;28.65;17.05;;;;;;;4.51;87.67;99999.84;5099976;28;20020;-60
2021/01/04 05:40:59;;;;;;;30.85;18.25;;;;;;;4.49;88.01;100006.97;5096697;28;20430;-62
2021/01/04 05:43:33;;;;;;;31.02;18.58;;;;;;;4.49;88.77;100005.00;5104270;27;20034;-62
2021/01/04 05:46:18;;;;;;;27.58;17.05;;;;;;;4.43;88.59;100006.47;5105853;28;20024;-57
2021/01/04 05:49:18;;;;;;;30.52;18.13;;;;;;;4.42;88.12;100006.84;5096684;28;20044;-62
2021/01/04 05:51:47;;;;;;;29.23;18.83;;;;;;;4.41;88.37;100002.47;5107513;28;20026;-63
2021/01/04 05:54:16;;;;;;;33.00;19.63;;;;;;;4.38;88.03;100001.19;5112159;28;20047;-60
2021/01/04 05:56:41;;;;;;;29.67;19.08;;;;;;;4.37;88.30;100010.72;5114934;28;20024;-59
2021/01/04 05:59:16;;;;;;;27.30;18.35;;;;;;;4.32;87.85;100008.25;5112147;28;20131;-63
2021/01/04 06:01:44;;;;;;;28.80;18.60;;;;;;;4.26;87.61;100010.53;5114932;28;20058;-59
2021/01/04 06:04:28;;;;;;;29.13;18.48;;;;;;;4.20;87.04;100016.78;5112239;28;20040;-63
2021/01/04 06:06:55;;;;;;;25.02;17.33;;;;;;;4.13;86.83;100031.38;5115151;28;20027;-63
2021/01/04 06:09:22;;;;;;;24.02;14.52;;;;;;;3.99;86.55;100029.09;5112381;28;20016;-63
2021/01/04 06:12:03;;;;;;;20.88;13.75;;;;;;;3.92;85.66;100033.72;5114751;28;20086;-59
2021/01/04 06:14:35;;;;;;;25.92;14.30;;;;;;;3.87;86.01;100037.59;5112383;27;20023;-59
2021/01/04 06:17:05;;;;;;;;;;;;;;;3.82;86.37;100057.34;5114984;28;20107;-62
2021/01/04 06:19:34;;;;;;;21.92;13.18;;;;;;;3.78;85.90;100062.03;5112145;28;19961;-58
2021/01/04 06:22:11;;;;;;;22.90;13.35;;;;;;;3.75;86.50;100068.31;5114553;28;20027;-59
2021/01/04 06:24:38;;;;;;;24.83;15.35;;;;;;;3.77;86.70;100062.38;5111938;28;20415;-63
2021/01/04 06:27:15;;;;;;;23.55;14.80;;;;;;;3.78;87.29;100059.25;5113529;28;20031;-64
2021/01/04 06:29:49;;;;;;;21.80;13.23;;;;;;;3.81;87.06;100054.91;5116769;28;20028;-62
2021/01/04 06:32:27;;;;;;;24.48;13.20;;;;;;;3.85;87.49;100045.50;5116419;28;20089;-63
2021/01/04 06:35:16;;;;;;;27.42;16.00;;;;;;;3.87;87.58;100050.72;5117031;27;20102;-63
2021/01/04 06:37:42;;;;;;;34.13;17.00;;;;;;;3.88;87.69;100049.53;5111044;28;20051;-63
2021/01/04 06:40:27;;;;;;;31.75;18.95;;;;;;;3.88;88.08;100058.69;5116599;28;20027;-63
2021/01/04 06:42:54;;;;;;;42.17;24.67;;;;;;;3.89;88.88;100057.50;5104128;28;20026;-62
2021/01/04 06:45:44;;;;;;;39.08;23.50;;;;;;;3.91;88.77;100060.72;5116517;28;20076;-62
2021/01/04 06:48:29;;;;;;;43.53;25.75;;;;;;;3.93;89.31;100068.69;5105894;28;20019;-62
2021/01/04 06:51:20;;;;;;;36.25;22.75;;;;;;;3.93;89.45;100063.94;5116150;28;20395;-62
2021/01/04 06:54:09;;;;;;;39.07;24.83;;;;;;;3.91;89.48;100065.47;5116646;28;20063;-63
2021/01/04 06:57:02;;;;;;;35.65;22.10;;;;;;;3.91;89.95;100065.47;5104948;28;20028;-59
2021/01/04 07:00:05;;;;;;;35.58;23.15;;;;;;;3.94;90.16;100064.75;5116254;28;20023;-63
2021/01/04 07:02:30;;;;;;;;;;;;;;;3.98;90.40;100063.63;5116523;28;20028;-53
2021/01/04 07:05:13;;;;;;;59.63;33.70;;;;;;;4.01;89.96;100060.13;5116226;28;19915;-63
2021/01/04 07:08:00;;;;;;;52.40;32.00;;;;;;;3.97;89.42;100064.81;5115979;27;20027;-62
2021/01/04 07:11:04;;;;;;;80.30;46.78;;;;;;;3.97;89.44;100059.25;5116075;27;20102;-62
2021/01/04 07:13:35;;;;;;;68.57;38.78;;;;;;;4.00;89.42;100071.63;5116498;28;20106;-62
2021/01/04 07:16:15;;;;;;;77.35;43.20;;;;;;;4.02;89.38;100069.28;5115903;28;20023;-63
2021/01/04 07:19:18;;;;;;;54.53;31.20;;;;;;;4.03;90.10;100068.91;5116077;28;20027;-62
2021/01/04 07:21:51;;;;;;;43.85;27.63;;;;;;;4.04;89.88;100075.28;5115880;28;20019;-63
2021/01/04 07:24:45;;;;;;;46.72;27.35;;;;;;;4.04;90.21;100084.41;5116016;28;20019;-63
2021/01/04 07:27:19;;;;;;;66.35;35.20;;;;;;;4.04;89.92;100098.31;5103930;28;20012;-63
2021/01/04 07:30:10;;;;;;;55.47;31.77;;;;;;;4.03;90.67;100096.72;5116004;28;20046;-63
2021/01/04 07:33:06;;;;;;;42.75;23.25;;;;;;;4.02;90.31;100095.09;5115928;28;20039;-59
2021/01/04 07:35:42;;;;;;;45.90;24.02;;;;;;;4.03;90.26;100093.94;5115871;28;20019;-63
2021/01/04 07:38:13;;;;;;;50.38;28.08;;;;;;;4.06;90.48;100088.81;5118991;28;20084;-63
2021/01/04 07:40:44;;;;;;;50.72;27.15;;;;;;;3.99;89.72;100095.03;5119808;28;20077;-62
2021/01/04 07:43:22;;;;;;;34.03;19.90;;;;;;;4.02;90.01;100097.88;5120107;28;20407;-53
2021/01/04 07:46:09;;;;;;;32.35;18.17;;;;;;;4.08;90.02;100097.59;5119838;28;20081;-60
2021/01/04 07:48:34;;;;;;;42.33;25.70;;;;;;;4.11;90.84;100086.56;5120079;28;20020;-59
2021/01/04 07:51:24;;;;;;;49.10;31.42;;;;;;;4.16;90.62;100091.03;5119567;28;20095;-58
2021/01/04 07:54:17;;;;;;;72.22;36.67;;;;;;;4.12;90.15;100088.16;5119806;28;20105;-63
2021/01/04 07:56:54;;;;;;;82.00;36.90;;;;;;;4.18;91.02;100097.81;5109428;28;20020;-63
2021/01/04 07:59:49;;;;;;;58.78;28.13;;;;;;;4.22;90.92;100100.69;5119562;28;20120;-59
2021/01/04 08:02:51;;;;;;;46.83;26.35;;;;;;;4.25;91.17;100099.94;5119695;28;20042;-63
2021/01/04 08:05:54;;;;;;;44.43;23.47;;;;;;;4.27;91.28;100103.16;5109706;28;20030;-62
2021/01/04 08:08:41;;;;;;;37.58;21.55;;;;;;;4.27;91.18;100092.81;5106495;28;20016;-59
2021/01/04 08:11:28;;;;;;;40.20;21.52;;;;;;;4.29;91.20;100087.69;5119225;27;20105;-55
2021/01/04 08:14:12;;;;;;;37.95;21.15;;;;;;;4.35;91.23;100097.34;5119371;28;20089;-60
2021/01/04 08:16:44;;;;;;;48.35;22.60;;;;;;;4.40;91.64;100087.94;5119219;28;20023;-62
2021/01/04 08:19:11;;;;;;;43.25;25.17;;;;;;;4.43;91.35;100092.75;5119184;28;20031;-63
2021/01/04 08:22:16;;;;;;;47.72;25.77;;;;;;;4.46;91.50;100092.00;5119274;28;20036;-59
2021/01/04 08:24:44;;;;;;;45.35;27.52;;;;;;;4.49;91.64;100090.47;5117703;28;20050;-62
2021/01/04 08:27:12;;;;;;;45.95;24.48;;;;;;;4.50;91.83;100086.50;5119408;27;20024;-59
2021/01/04 08:29:51;;;;;;;64.60;34.50;;;;;;;4.53;91.28;100089.34;5119099;28;20399;-58
2021/01/04 08:32:30;;;;;;;90.72;44.33;;;;;;;4.52;91.38;100084.97;5118866;28;20040;-59
2021/01/04 08:35:17;;;;;;;98.00;50.40;;;;;;;4.52;91.77;100082.19;5119296;28;20055;-63
2021/01/04 08:37:46;;;;;;;87.78;44.00;;;;;;;4.52;91.62;100090.53;5118914;28;20062;-63
2021/01/04 08:40:29;;;;;;;99.70;44.92;;;;;;;4.53;91.67;100091.34;5118829;28;20407;-59
2021/01/04 08:43:10;;;;;;;108.40;53.17;;;;;;;4.52;91.28;100096.09;5106792;28;20054;-63
2021/01/04 08:45:45;;;;;;;101.77;42.30;;;;;;;4.56;91.79;100085.03;5118563;28;20031;-62
2021/01/04 08:48:20;;;;;;;81.32;37.63;;;;;;;4.62;91.67;100089.91;5118459;28;20107;-63
2021/01/04 08:51:13;;;;;;;77.38;35.75;;;;;;;4.70;91.75;100095.63;5118542;28;20027;-59
2021/01/04 08:53:50;;;;;;;69.50;28.75;;;;;;;4.75;91.18;100098.09;5118930;28;20024;-62
2021/01/04 08:56:26;;;;;;;64.72;27.40;;;;;;;4.79;91.23;100090.63;5118569;28;20498;-62
2021/01/04 08:58:52;;;;;;;54.03;25.55;;;;;;;4.84;91.24;100091.09;5118788;28;20310;-63
2021/01/04 09:01:27;;;;;;;52.90;25.77;;;;;;;4.87;91.11;100095.13;5117962;28;20011;-62
2021/01/04 09:04:09;;;;;;;49.90;23.25;;;;;;;4.91;91.30;100096.78;5118669;28;20062;-63
2021/01/04 09:06:38;;;;;;;50.53;22.35;;;;;;;4.93;91.19;100091.69;5104882;28;20128;-63
2021/01/04 09:09:20;;;;;;;55.80;25.65;;;;;;;4.97;91.49;100086.97;5118748;28;20288;-63
2021/01/04 09:12:07;;;;;;;60.42;23.88;;;;;;;5.02;91.68;100096.19;5105661;28;20019;-62
2021/01/04 09:14:47;;;;;;;60.28;28.13;;;;;;;5.07;92.19;100093.06;5118179;28;20019;-63
2021/01/04 09:17:25;;;;;;;56.17;25.63;;;;;;;5.09;92.17;100096.28;5118200;28;20023;-63
2021/01/04 09:20:04;;;;;;;50.72;25.42;;;;;;;5.15;92.26;100095.59;5118080;28;20024;-63
2021/01/04 09:22:29;;;;;;;52.20;25.67;;;;;;;5.19;92.40;100090.06;5117856;28;20047;-59
2021/01/04 09:24:55;;;;;;;43.35;26.45;;;;;;;5.24;92.27;100087.00;5117972;28;20081;-62
2021/01/04 09:27:30;;;;;;;45.67;25.17;;;;;;;5.29;92.74;100086.69;5118031;28;20015;-61
2021/01/04 09:30:00;;;;;;;52.08;27.17;;;;;;;5.38;93.03;100080.81;5117885;28;20118;-59
2021/01/04 09:32:42;;;;;;;51.22;26.20;;;;;;;5.42;93.14;100082.47;5117739;28;20330;-61
2021/01/04 09:35:16;;;;;;;50.35;27.60;;;;;;;5.47;93.07;100068.22;5117974;28;20032;-62
2021/01/04 09:37:41;;;;;;;54.13;27.58;;;;;;;5.51;92.58;100071.09;5117757;28;20379;-60
2021/01/04 09:40:10;;;;;;;75.00;37.15;;;;;;;5.57;93.05;100064.00;5117788;28;20131;-61
2021/01/04 09:42:36;;;;;;;84.22;43.92;;;;;;;5.63;92.72;100070.03;5117930;28;20038;-56
2021/01/04 09:45:13;;;;;;;56.20;32.28;;;;;;;5.68;92.49;100062.16;5117583;28;20414;-63
2021/01/04 09:47:48;;;;;;;52.63;29.52;;;;;;;5.71;92.18;100055.81;5117435;28;20035;-61
2021/01/04 09:50:20;;;;;;;66.57;36.53;;;;;;;5.79;92.35;100049.16;5117485;28;20062;-61
2021/01/04 09:52:48;;;;;;;;;;;;;;;5.92;92.58;100049.75;5117950;28;20035;-62
2021/01/04 09:55:14;;;;;;;58.75;35.40;;;;;;;6.03;92.12;100044.31;5117524;28;20295;-62
2021/01/04 09:57:45;;;;;;;65.28;36.22;;;;;;;6.13;92.05;100040.84;5117429;28;20038;-59
2021/01/04 10:00:17;;;;;;;61.15;32.92;;;;;;;6.26;91.87;100041.34;5116299;28;20055;-59
2021/01/04 10:02:42;;;;;;;;;;;;;;;6.37;91.69;100042.28;5118037;28;20019;-63
2021/01/04 10:05:11;;;;;;;79.75;42.58;;;;;;;6.39;91.12;100039.91;5117132;28;19911;-63
2021/01/04 10:07:39;;;;;;;71.18;37.78;;;;;;;6.42;90.88;100034.38;5116952;28;20031;-63
2021/01/04 10:10:20;;;;;;;73.38;36.63;;;;;;;6.41;90.67;100037.53;5117202;28;20027;-63
2021/01/04 10:12:46;;;;;;;62.58;35.53;;;;;;;6.42;90.73;100034.38;5117113;28;20024;-63
2021/01/04 10:15:24;;;;;;;60.70;31.17;;;;;;;6.40;90.31;100033.94;5116907;28;20084;-63
2021/01/04 10:18:15;;;;;;;53.92;31.55;;;;;;;6.44;90.74;100020.81;5117022;28;20411;-62
2021/01/04 10:20:48;;;;;;;66.47;36.17;;;;;;;6.54;91.31;100018.50;5116821;28;20023;-63
2021/01/04 10:23:33;;;;;;;55.05;29.40;;;;;;;6.67;91.54;100017.06;5116812;28;20039;-63
2021/01/04 10:26:00;;;;;;;48.47;27.25;;;;;;;6.75;91.63;100007.53;5116920;28;20019;-59
2021/01/04 10:28:35;;;;;;;58.85;31.40;;;;;;;6.86;91.23;99997.28;5116657;28;20062;-63
2021/01/04 10:31:03;;;;;;;59.72;31.35;;;;;;;6.95;91.10;99994.13;5116545;28;20040;-64
2021/01/04 10:33:34;;;;;;;59.47;29.55;;;;;;;7.00;90.17;100002.97;5116481;28;20023;-63
2021/01/04 10:36:19;;;;;;;56.97;29.92;;;;;;;7.03;89.81;99993.78;5115635;28;20031;-62
2021/01/04 10:39:07;;;;;;;52.88;29.63;;;;;;;7.03;89.50;99993.78;5116652;28;20039;-63
2021/01/04 10:41:35;;;;;;;58.78;31.10;;;;;;;7.04;90.16;99986.22;5116932;28;20031;-63
2021/01/04 10:44:34;;;;;;;55.92;30.23;;;;;;;7.05;90.12;99977.44;5116296;28;20026;-63
2021/01/04 10:47:17;;;;;;;56.20;30.70;;;;;;;7.03;89.82;99977.03;5114334;28;20039;-62
2021/01/04 10:49:43;;;;;;;51.85;28.25;;;;;;;6.99;89.79;99972.59;5104157;28;20417;-63
2021/01/04 10:52:22;;;;;;;58.75;31.85;;;;;;;6.96;90.09;99967.81;5116551;28;20110;-63
2021/01/04 10:54:47;;;;;;;51.78;28.25;;;;;;;6.95;90.37;99966.19;5116587;28;20045;-63
2021/01/04 10:57:21;;;;;;;57.63;31.60;;;;;;;6.89;89.88;99960.19;5116273;28;20027;-59
2021/01/04 10:59:57;;;;;;;87.10;44.33;;;;;;;6.90;90.01;99950.59;5116664;28;20027;-62
2021/01/04 11:02:22;;;;;;;97.20;52.22;;;;;;;6.92;90.51;99944.63;5115804;28;20026;-59
2021/01/04 11:04:54;;;;;;;80.40;43.35;;;;;;;6.92;90.37;99934.25;5116387;28;20031;-62
2021/01/04 11:07:29;;;;;;;68.22;37.63;;;;;;;6.94;90.72;99931.06;5116197;28;20023;-63
2021/01/04 11:09:55;;;;;;;74.78;38.38;;;;;;;6.93;90.97;99935.84;5116171;28;20020;-63
2021/01/04 11:12:26;;;;;;;70.15;36.53;;;;;;;6.94;91.03;99920.69;5115813;28;20026;-63
2021/01/04 11:15:03;;;;;;;73.30;35.40;;;;;;;6.95;91.33;99919.50;5116237;28;20348;-62
2021/01/04 11:17:31;;;;;;;114.65;48.55;;;;;;;6.97;91.24;99925.50;5115942;28;20076;-62
2021/01/04 11:20:15;;;;;;;77.97;40.13;;;;;;;6.97;91.01;99928.28;5115897;28;20102;-62
2021/01/04 11:22:41;;;;;;;75.93;38.50;;;;;;;6.96;91.35;99923.91;5116238;28;20050;-62
2021/01/04 11:25:08;;;;;;;108.68;53.10;;;;;;;6.94;91.19;99920.69;5115739;28;20403;-62
2021/01/04 11:27:34;;;;;;;102.75;51.35;;;;;;;6.95;91.36;99915.91;5115915;28;20049;-62
2021/01/04 11:29:59;;;;;;;116.38;57.47;;;;;;;6.95;91.48;99916.72;5115929;28;20043;-59
2021/01/04 11:32:25;;;;;;;137.38;62.50;;;;;;;6.97;91.05;99913.53;5115433;28;20544;-63
2021/01/04 11:34:54;;;;;;;73.20;37.97;;;;;;;6.99;91.67;99903.56;5116103;28;20071;-62
2021/01/04 11:37:22;;;;;;;74.15;38.50;;;;;;;7.01;91.74;99903.97;5115676;28;20501;-62
2021/01/04 11:39:48;;;;;;;93.95;49.08;;;;;;;7.03;91.25;99909.16;5116249;28;20032;-61
2021/01/04 11:42:13;;;;;;;86.80;42.35;;;;;;;7.03;91.30;99900.78;5115599;28;20020;-59
2021/01/04 11:44:38;;;;;;;82.82;44.35;;;;;;;7.06;91.22;99894.41;5115667;28;20352;-58
2021/01/04 11:47:05;;;;;;;69.70;37.90;;;;;;;7.07;91.42;99899.59;5115414;28;20023;-61
2021/01/04 11:49:31;;;;;;;85.22;45.75;;;;;;;7.09;91.69;99888.03;5116002;28;20023;-63
2021/01/04 11:51:56;;;;;;;84.70;46.85;;;;;;;7.10;91.60;99889.63;5115947;28;20310;-59
2021/01/04 11:54:22;;;;;;;73.38;41.00;;;;;;;7.12;91.50;99892.84;5115915;28;20362;-62
2021/01/04 11:56:48;;;;;;;69.43;40.55;;;;;;;7.15;91.61;99888.47;5115862;28;20054;-62
2021/01/04 11:59:14;;;;;;;132.40;80.38;;;;;;;7.16;91.33;99896.47;5115293;28;20031;-61
2021/01/04 12:01:40;;;;;;;160.90;99.47;;;;;;;7.16;91.64;99899.28;5115417;28;20024;-62